Albert, Texas
Current Conditions -  °F | °C
As of 4:35 AM on Sunday 21 Dec 2014 (Local Time) from KT82 Reporting Station
Overcast Overcast  
Wind Chill: 43°   Ceiling: 1400
Heat Index: 47°   Visibility: 10mi
Dew Point: 42°   Wind: 7mph
Humidity: 85%   Direction: 190°S
Pressure: 30.07"   Gusts: NA
Location:  30.2109°N, 98.6562°W
Report Text: KT82 211035Z AUTO 19006KT 10SM OVC014 08/06 A3007 RMK AO2 T00820058
Loading
Personal Weather Stations






























Interactive Weather Map New forecast layout! Learn more

10-Day Weather Forecast

Advertisements
Track Severe Weather on mobile